sensor_id;sensor_type;location;lat;lon;timestamp;P1;durP1;ratioP1;P2;durP2;ratioP2
40707;SDS011;26392;42.696;23.350;2023-04-06T00:01:01;12.98;;;6.55;;
40707;SDS011;26392;42.696;23.350;2023-04-06T00:03:27;13.07;;;7.43;;
40707;SDS011;26392;42.696;23.350;2023-04-06T00:05:52;14.50;;;8.23;;
40707;SDS011;26392;42.696;23.350;2023-04-06T00:08:18;14.18;;;6.68;;
40707;SDS011;26392;42.696;23.350;2023-04-06T00:10:43;13.88;;;6.95;;
40707;SDS011;26392;42.696;23.350;2023-04-06T00:13:09;13.50;;;6.85;;
40707;SDS011;26392;42.696;23.350;2023-04-06T00:15:35;13.68;;;6.97;;
40707;SDS011;26392;42.696;23.350;2023-04-06T00:18:00;11.70;;;6.45;;
40707;SDS011;26392;42.696;23.350;2023-04-06T00:20:26;18.08;;;7.95;;
40707;SDS011;26392;42.696;23.350;2023-04-06T00:22:52;13.65;;;6.40;;
40707;SDS011;26392;42.696;23.350;2023-04-06T00:25:19;14.50;;;6.85;;
40707;SDS011;26392;42.696;23.350;2023-04-06T00:27:44;14.32;;;7.72;;
40707;SDS011;26392;42.696;23.350;2023-04-06T00:30:11;15.27;;;7.22;;
40707;SDS011;26392;42.696;23.350;2023-04-06T00:32:37;16.08;;;7.75;;
40707;SDS011;26392;42.696;23.350;2023-04-06T00:35:05;12.75;;;6.72;;
40707;SDS011;26392;42.696;23.350;2023-04-06T00:37:31;14.98;;;7.55;;
40707;SDS011;26392;42.696;23.350;2023-04-06T00:39:57;13.27;;;7.38;;
40707;SDS011;26392;42.696;23.350;2023-04-06T00:42:22;14.68;;;7.78;;
40707;SDS011;26392;42.696;23.350;2023-04-06T00:44:54;15.93;;;6.78;;
40707;SDS011;26392;42.696;23.350;2023-04-06T00:47:21;13.63;;;6.68;;
40707;SDS011;26392;42.696;23.350;2023-04-06T00:49:47;15.65;;;7.07;;
40707;SDS011;26392;42.696;23.350;2023-04-06T00:52:13;11.60;;;6.43;;
40707;SDS011;26392;42.696;23.350;2023-04-06T00:54:39;10.93;;;6.75;;
40707;SDS011;26392;42.696;23.350;2023-04-06T00:57:05;11.82;;;6.88;;
40707;SDS011;26392;42.696;23.350;2023-04-06T00:59:30;12.73;;;7.15;;
40707;SDS011;26392;42.696;23.350;2023-04-06T01:01:56;14.48;;;6.75;;
40707;SDS011;26392;42.696;23.350;2023-04-06T01:04:21;12.52;;;6.68;;
40707;SDS011;26392;42.696;23.350;2023-04-06T01:06:48;10.43;;;6.30;;
40707;SDS011;26392;42.696;23.350;2023-04-06T01:09:14;17.85;;;8.18;;
40707;SDS011;26392;42.696;23.350;2023-04-06T01:11:40;16.27;;;7.38;;
40707;SDS011;26392;42.696;23.350;2023-04-06T01:14:05;11.45;;;6.30;;
40707;SDS011;26392;42.696;23.350;2023-04-06T01:16:31;13.98;;;6.95;;
40707;SDS011;26392;42.696;23.350;2023-04-06T01:18:56;14.27;;;7.35;;
40707;SDS011;26392;42.696;23.350;2023-04-06T01:21:22;16.60;;;7.53;;
40707;SDS011;26392;42.696;23.350;2023-04-06T01:23:47;18.17;;;7.55;;
40707;SDS011;26392;42.696;23.350;2023-04-06T01:26:13;12.57;;;6.50;;
40707;SDS011;26392;42.696;23.350;2023-04-06T01:28:38;12.45;;;6.35;;
40707;SDS011;26392;42.696;23.350;2023-04-06T01:31:06;14.95;;;7.18;;
40707;SDS011;26392;42.696;23.350;2023-04-06T01:33:32;13.27;;;7.55;;
40707;SDS011;26392;42.696;23.350;2023-04-06T01:35:57;19.88;;;6.90;;
40707;SDS011;26392;42.696;23.350;2023-04-06T01:38:23;12.27;;;6.75;;
40707;SDS011;26392;42.696;23.350;2023-04-06T01:40:48;15.65;;;7.22;;
40707;SDS011;26392;42.696;23.350;2023-04-06T01:43:14;16.23;;;7.13;;
40707;SDS011;26392;42.696;23.350;2023-04-06T01:45:40;10.82;;;6.22;;
40707;SDS011;26392;42.696;23.350;2023-04-06T01:48:06;9.15;;;5.53;;
40707;SDS011;26392;42.696;23.350;2023-04-06T01:50:32;13.10;;;7.40;;
40707;SDS011;26392;42.696;23.350;2023-04-06T01:52:57;12.73;;;7.38;;
40707;SDS011;26392;42.696;23.350;2023-04-06T01:55:23;10.57;;;6.65;;
40707;SDS011;26392;42.696;23.350;2023-04-06T01:57:48;16.35;;;7.18;;
40707;SDS011;26392;42.696;23.350;2023-04-06T02:00:14;16.20;;;8.18;;
40707;SDS011;26392;42.696;23.350;2023-04-06T02:02:40;14.25;;;7.18;;
40707;SDS011;26392;42.696;23.350;2023-04-06T02:05:06;14.82;;;6.85;;
40707;SDS011;26392;42.696;23.350;2023-04-06T02:07:33;13.75;;;7.20;;
40707;SDS011;26392;42.696;23.350;2023-04-06T02:09:58;17.65;;;7.60;;
40707;SDS011;26392;42.696;23.350;2023-04-06T02:12:23;12.48;;;6.50;;
40707;SDS011;26392;42.696;23.350;2023-04-06T02:14:49;17.90;;;7.78;;
40707;SDS011;26392;42.696;23.350;2023-04-06T02:17:15;12.70;;;6.05;;
40707;SDS011;26392;42.696;23.350;2023-04-06T02:19:40;12.18;;;6.45;;
40707;SDS011;26392;42.696;23.350;2023-04-06T02:22:05;14.55;;;7.25;;
40707;SDS011;26392;42.696;23.350;2023-04-06T02:24:31;14.85;;;6.50;;
40707;SDS011;26392;42.696;23.350;2023-04-06T02:26:57;13.05;;;7.20;;
40707;SDS011;26392;42.696;23.350;2023-04-06T02:29:22;13.82;;;7.20;;
40707;SDS011;26392;42.696;23.350;2023-04-06T02:31:48;13.52;;;6.90;;
40707;SDS011;26392;42.696;23.350;2023-04-06T02:34:13;14.43;;;7.60;;
40707;SDS011;26392;42.696;23.350;2023-04-06T02:36:45;11.75;;;7.13;;
40707;SDS011;26392;42.696;23.350;2023-04-06T02:39:12;17.08;;;7.57;;
40707;SDS011;26392;42.696;23.350;2023-04-06T02:41:38;13.65;;;7.20;;
40707;SDS011;26392;42.696;23.350;2023-04-06T02:44:03;16.00;;;7.72;;
40707;SDS011;26392;42.696;23.350;2023-04-06T02:46:31;13.23;;;7.05;;
40707;SDS011;26392;42.696;23.350;2023-04-06T02:48:56;16.58;;;6.30;;
40707;SDS011;26392;42.696;23.350;2023-04-06T02:51:22;15.13;;;7.47;;
40707;SDS011;26392;42.696;23.350;2023-04-06T02:53:47;12.73;;;6.78;;
40707;SDS011;26392;42.696;23.350;2023-04-06T02:56:13;15.32;;;6.85;;
40707;SDS011;26392;42.696;23.350;2023-04-06T02:58:38;11.35;;;6.30;;
40707;SDS011;26392;42.696;23.350;2023-04-06T03:01:03;11.38;;;6.22;;
40707;SDS011;26392;42.696;23.350;2023-04-06T03:03:29;9.95;;;5.78;;
40707;SDS011;26392;42.696;23.350;2023-04-06T03:05:55;9.35;;;4.85;;
40707;SDS011;26392;42.696;23.350;2023-04-06T03:08:23;10.55;;;5.80;;
40707;SDS011;26392;42.696;23.350;2023-04-06T03:10:49;14.02;;;5.68;;
40707;SDS011;26392;42.696;23.350;2023-04-06T03:13:15;9.45;;;5.65;;
40707;SDS011;26392;42.696;23.350;2023-04-06T03:15:40;13.95;;;5.75;;
40707;SDS011;26392;42.696;23.350;2023-04-06T03:18:06;11.05;;;5.55;;
40707;SDS011;26392;42.696;23.350;2023-04-06T03:20:31;9.82;;;5.75;;
40707;SDS011;26392;42.696;23.350;2023-04-06T03:22:57;12.07;;;6.13;;
40707;SDS011;26392;42.696;23.350;2023-04-06T03:25:22;14.02;;;5.20;;
40707;SDS011;26392;42.696;23.350;2023-04-06T03:27:48;17.58;;;6.35;;
40707;SDS011;26392;42.696;23.350;2023-04-06T03:30:13;13.20;;;7.88;;
40707;SDS011;26392;42.696;23.350;2023-04-06T03:32:41;15.00;;;7.50;;
40707;SDS011;26392;42.696;23.350;2023-04-06T03:35:06;13.32;;;6.53;;
40707;SDS011;26392;42.696;23.350;2023-04-06T03:37:32;13.57;;;6.63;;
40707;SDS011;26392;42.696;23.350;2023-04-06T03:39:57;11.25;;;5.70;;
40707;SDS011;26392;42.696;23.350;2023-04-06T03:42:23;14.38;;;7.40;;
40707;SDS011;26392;42.696;23.350;2023-04-06T03:44:48;11.82;;;6.97;;
40707;SDS011;26392;42.696;23.350;2023-04-06T03:47:13;16.33;;;6.65;;
40707;SDS011;26392;42.696;23.350;2023-04-06T03:49:39;12.30;;;5.97;;
40707;SDS011;26392;42.696;23.350;2023-04-06T03:52:05;14.02;;;6.63;;
40707;SDS011;26392;42.696;23.350;2023-04-06T03:54:30;13.77;;;6.22;;
40707;SDS011;26392;42.696;23.350;2023-04-06T03:56:55;15.68;;;6.53;;
40707;SDS011;26392;42.696;23.350;2023-04-06T03:59:21;15.63;;;7.03;;
40707;SDS011;26392;42.696;23.350;2023-04-06T04:01:46;13.77;;;7.80;;
40707;SDS011;26392;42.696;23.350;2023-04-06T04:04:12;16.55;;;8.23;;
40707;SDS011;26392;42.696;23.350;2023-04-06T04:06:37;16.00;;;8.77;;
40707;SDS011;26392;42.696;23.350;2023-04-06T04:09:03;14.45;;;6.88;;
40707;SDS011;26392;42.696;23.350;2023-04-06T04:11:28;15.50;;;8.20;;
40707;SDS011;26392;42.696;23.350;2023-04-06T04:13:54;15.02;;;6.75;;
40707;SDS011;26392;42.696;23.350;2023-04-06T04:16:19;15.48;;;6.72;;
40707;SDS011;26392;42.696;23.350;2023-04-06T04:18:44;18.98;;;8.60;;
40707;SDS011;26392;42.696;23.350;2023-04-06T04:21:12;17.48;;;8.88;;
40707;SDS011;26392;42.696;23.350;2023-04-06T04:23:37;17.77;;;8.40;;
40707;SDS011;26392;42.696;23.350;2023-04-06T04:26:03;15.73;;;7.35;;
40707;SDS011;26392;42.696;23.350;2023-04-06T04:28:28;11.55;;;6.80;;
40707;SDS011;26392;42.696;23.350;2023-04-06T04:30:54;13.40;;;6.97;;
40707;SDS011;26392;42.696;23.350;2023-04-06T04:33:19;13.85;;;7.53;;
40707;SDS011;26392;42.696;23.350;2023-04-06T04:35:45;14.30;;;6.72;;
40707;SDS011;26392;42.696;23.350;2023-04-06T04:38:10;15.38;;;7.03;;
40707;SDS011;26392;42.696;23.350;2023-04-06T04:40:36;13.45;;;6.45;;
40707;SDS011;26392;42.696;23.350;2023-04-06T04:43:01;11.77;;;6.13;;
40707;SDS011;26392;42.696;23.350;2023-04-06T04:45:27;12.05;;;6.13;;
40707;SDS011;26392;42.696;23.350;2023-04-06T04:47:52;15.60;;;7.03;;
40707;SDS011;26392;42.696;23.350;2023-04-06T04:50:18;11.35;;;6.18;;
40707;SDS011;26392;42.696;23.350;2023-04-06T04:52:43;14.00;;;6.60;;
40707;SDS011;26392;42.696;23.350;2023-04-06T04:55:08;14.55;;;7.50;;
40707;SDS011;26392;42.696;23.350;2023-04-06T04:57:34;18.08;;;8.60;;
40707;SDS011;26392;42.696;23.350;2023-04-06T04:59:59;18.25;;;7.75;;
40707;SDS011;26392;42.696;23.350;2023-04-06T05:02:26;17.73;;;8.68;;
40707;SDS011;26392;42.696;23.350;2023-04-06T05:04:52;18.33;;;9.35;;
40707;SDS011;26392;42.696;23.350;2023-04-06T05:07:17;19.60;;;9.55;;
40707;SDS011;26392;42.696;23.350;2023-04-06T05:09:43;18.25;;;9.07;;
40707;SDS011;26392;42.696;23.350;2023-04-06T05:12:09;19.23;;;9.32;;
40707;SDS011;26392;42.696;23.350;2023-04-06T05:14:35;19.08;;;8.77;;
40707;SDS011;26392;42.696;23.350;2023-04-06T05:17:01;15.25;;;7.93;;
40707;SDS011;26392;42.696;23.350;2023-04-06T05:19:26;15.73;;;8.43;;
40707;SDS011;26392;42.696;23.350;2023-04-06T05:21:52;18.55;;;8.35;;
40707;SDS011;26392;42.696;23.350;2023-04-06T05:24:17;20.30;;;10.05;;
40707;SDS011;26392;42.696;23.350;2023-04-06T05:26:43;19.15;;;9.23;;
40707;SDS011;26392;42.696;23.350;2023-04-06T05:29:08;19.25;;;8.50;;
40707;SDS011;26392;42.696;23.350;2023-04-06T05:31:34;21.73;;;9.32;;
40707;SDS011;26392;42.696;23.350;2023-04-06T05:33:59;15.18;;;7.63;;
40707;SDS011;26392;42.696;23.350;2023-04-06T05:36:25;16.67;;;7.85;;
40707;SDS011;26392;42.696;23.350;2023-04-06T05:38:51;14.00;;;8.18;;
40707;SDS011;26392;42.696;23.350;2023-04-06T05:41:17;24.13;;;9.25;;
40707;SDS011;26392;42.696;23.350;2023-04-06T05:43:43;16.58;;;8.23;;
40707;SDS011;26392;42.696;23.350;2023-04-06T05:46:09;19.13;;;8.57;;
40707;SDS011;26392;42.696;23.350;2023-04-06T05:48:35;16.95;;;8.43;;
40707;SDS011;26392;42.696;23.350;2023-04-06T05:51:01;19.13;;;8.55;;
40707;SDS011;26392;42.696;23.350;2023-04-06T05:53:27;18.25;;;9.73;;
40707;SDS011;26392;42.696;23.350;2023-04-06T05:55:54;18.00;;;8.63;;
40707;SDS011;26392;42.696;23.350;2023-04-06T05:58:19;17.83;;;9.02;;
40707;SDS011;26392;42.696;23.350;2023-04-06T06:00:45;20.63;;;9.55;;
40707;SDS011;26392;42.696;23.350;2023-04-06T06:03:11;22.98;;;10.00;;
40707;SDS011;26392;42.696;23.350;2023-04-06T06:05:37;23.02;;;10.30;;
40707;SDS011;26392;42.696;23.350;2023-04-06T06:08:03;22.55;;;10.23;;
40707;SDS011;26392;42.696;23.350;2023-04-06T06:10:28;20.90;;;9.85;;
40707;SDS011;26392;42.696;23.350;2023-04-06T06:12:53;21.58;;;9.90;;
40707;SDS011;26392;42.696;23.350;2023-04-06T06:15:19;22.33;;;10.18;;
40707;SDS011;26392;42.696;23.350;2023-04-06T06:17:44;17.83;;;9.32;;
40707;SDS011;26392;42.696;23.350;2023-04-06T06:20:10;22.48;;;10.23;;
40707;SDS011;26392;42.696;23.350;2023-04-06T06:22:36;17.77;;;8.98;;
40707;SDS011;26392;42.696;23.350;2023-04-06T06:25:01;16.90;;;8.80;;
40707;SDS011;26392;42.696;23.350;2023-04-06T06:27:27;14.32;;;7.38;;
40707;SDS011;26392;42.696;23.350;2023-04-06T06:29:53;19.42;;;8.43;;
40707;SDS011;26392;42.696;23.350;2023-04-06T06:32:18;17.85;;;7.82;;
40707;SDS011;26392;42.696;23.350;2023-04-06T06:34:44;16.50;;;8.98;;
40707;SDS011;26392;42.696;23.350;2023-04-06T06:37:09;18.80;;;8.60;;
40707;SDS011;26392;42.696;23.350;2023-04-06T06:39:34;18.83;;;8.57;;
40707;SDS011;26392;42.696;23.350;2023-04-06T06:42:00;15.95;;;8.40;;
40707;SDS011;26392;42.696;23.350;2023-04-06T06:44:26;17.00;;;8.00;;
40707;SDS011;26392;42.696;23.350;2023-04-06T06:46:52;23.38;;;9.70;;
40707;SDS011;26392;42.696;23.350;2023-04-06T06:49:18;16.38;;;7.75;;
40707;SDS011;26392;42.696;23.350;2023-04-06T06:51:44;17.70;;;8.07;;
40707;SDS011;26392;42.696;23.350;2023-04-06T06:54:10;16.13;;;8.48;;
40707;SDS011;26392;42.696;23.350;2023-04-06T06:56:36;16.55;;;8.55;;
40707;SDS011;26392;42.696;23.350;2023-04-06T06:59:03;16.23;;;8.95;;
40707;SDS011;26392;42.696;23.350;2023-04-06T07:01:28;18.25;;;8.82;;
40707;SDS011;26392;42.696;23.350;2023-04-06T07:03:54;15.00;;;7.60;;
40707;SDS011;26392;42.696;23.350;2023-04-06T07:06:20;12.63;;;6.88;;
40707;SDS011;26392;42.696;23.350;2023-04-06T07:08:46;16.77;;;7.85;;
40707;SDS011;26392;42.696;23.350;2023-04-06T07:11:11;15.70;;;7.65;;
40707;SDS011;26392;42.696;23.350;2023-04-06T07:13:37;17.65;;;8.40;;
40707;SDS011;26392;42.696;23.350;2023-04-06T07:16:02;15.70;;;7.45;;
40707;SDS011;26392;42.696;23.350;2023-04-06T07:21:12;15.60;;;8.32;;
40707;SDS011;26392;42.696;23.350;2023-04-06T07:23:37;17.70;;;8.02;;
40707;SDS011;26392;42.696;23.350;2023-04-06T07:26:03;17.52;;;7.03;;
40707;SDS011;26392;42.696;23.350;2023-04-06T07:28:28;14.55;;;7.60;;
40707;SDS011;26392;42.696;23.350;2023-04-06T07:30:54;21.17;;;8.90;;
40707;SDS011;26392;42.696;23.350;2023-04-06T07:33:19;12.55;;;7.07;;
40707;SDS011;26392;42.696;23.350;2023-04-06T07:35:45;19.48;;;8.27;;
40707;SDS011;26392;42.696;23.350;2023-04-06T07:38:11;14.52;;;7.05;;
40707;SDS011;26392;42.696;23.350;2023-04-06T07:40:36;19.50;;;8.10;;
40707;SDS011;26392;42.696;23.350;2023-04-06T07:43:02;13.95;;;7.90;;
40707;SDS011;26392;42.696;23.350;2023-04-06T07:45:28;18.48;;;9.40;;
40707;SDS011;26392;42.696;23.350;2023-04-06T07:47:53;16.77;;;8.30;;
40707;SDS011;26392;42.696;23.350;2023-04-06T07:50:19;18.08;;;9.13;;
40707;SDS011;26392;42.696;23.350;2023-04-06T07:52:44;16.10;;;8.88;;
40707;SDS011;26392;42.696;23.350;2023-04-06T07:55:10;16.13;;;7.45;;
40707;SDS011;26392;42.696;23.350;2023-04-06T07:57:36;16.38;;;7.32;;
40707;SDS011;26392;42.696;23.350;2023-04-06T08:00:01;15.30;;;8.50;;
40707;SDS011;26392;42.696;23.350;2023-04-06T08:02:28;16.85;;;8.10;;
40707;SDS011;26392;42.696;23.350;2023-04-06T08:04:54;20.08;;;7.60;;
40707;SDS011;26392;42.696;23.350;2023-04-06T08:07:19;15.13;;;7.57;;
40707;SDS011;26392;42.696;23.350;2023-04-06T08:09:45;17.25;;;7.72;;
40707;SDS011;26392;42.696;23.350;2023-04-06T08:12:10;12.70;;;6.95;;
40707;SDS011;26392;42.696;23.350;2023-04-06T08:14:36;14.00;;;7.65;;
40707;SDS011;26392;42.696;23.350;2023-04-06T08:17:01;13.35;;;6.65;;
40707;SDS011;26392;42.696;23.350;2023-04-06T08:19:26;16.58;;;8.18;;
40707;SDS011;26392;42.696;23.350;2023-04-06T08:21:52;12.75;;;7.05;;
40707;SDS011;26392;42.696;23.350;2023-04-06T08:24:17;15.77;;;7.25;;
40707;SDS011;26392;42.696;23.350;2023-04-06T08:26:43;16.80;;;7.07;;
40707;SDS011;26392;42.696;23.350;2023-04-06T08:29:08;11.32;;;6.10;;
40707;SDS011;26392;42.696;23.350;2023-04-06T08:31:34;8.95;;;5.28;;
40707;SDS011;26392;42.696;23.350;2023-04-06T08:34:00;12.80;;;6.88;;
40707;SDS011;26392;42.696;23.350;2023-04-06T08:36:25;12.32;;;5.93;;
40707;SDS011;26392;42.696;23.350;2023-04-06T08:38:51;17.80;;;6.80;;
40707;SDS011;26392;42.696;23.350;2023-04-06T08:41:17;13.70;;;6.65;;
40707;SDS011;26392;42.696;23.350;2023-04-06T08:43:46;13.70;;;6.38;;
40707;SDS011;26392;42.696;23.350;2023-04-06T08:46:21;11.77;;;7.25;;
40707;SDS011;26392;42.696;23.350;2023-04-06T08:48:46;13.45;;;6.63;;
40707;SDS011;26392;42.696;23.350;2023-04-06T08:51:15;17.25;;;8.65;;
40707;SDS011;26392;42.696;23.350;2023-04-06T08:53:41;13.82;;;6.15;;
40707;SDS011;26392;42.696;23.350;2023-04-06T08:56:06;17.73;;;7.65;;
40707;SDS011;26392;42.696;23.350;2023-04-06T08:58:35;15.07;;;6.05;;
40707;SDS011;26392;42.696;23.350;2023-04-06T09:01:03;12.02;;;6.55;;
40707;SDS011;26392;42.696;23.350;2023-04-06T09:03:33;11.73;;;6.53;;
40707;SDS011;26392;42.696;23.350;2023-04-06T09:06:02;11.45;;;6.22;;
40707;SDS011;26392;42.696;23.350;2023-04-06T09:08:29;10.55;;;5.75;;
40707;SDS011;26392;42.696;23.350;2023-04-06T09:10:55;11.35;;;6.70;;
40707;SDS011;26392;42.696;23.350;2023-04-06T09:13:20;13.52;;;7.00;;
40707;SDS011;26392;42.696;23.350;2023-04-06T09:15:46;14.18;;;7.13;;
40707;SDS011;26392;42.696;23.350;2023-04-06T09:18:11;10.10;;;5.82;;
40707;SDS011;26392;42.696;23.350;2023-04-06T09:20:37;12.38;;;7.25;;
40707;SDS011;26392;42.696;23.350;2023-04-06T09:23:02;11.82;;;7.30;;
40707;SDS011;26392;42.696;23.350;2023-04-06T09:25:28;12.55;;;7.05;;
40707;SDS011;26392;42.696;23.350;2023-04-06T09:28:11;10.93;;;6.30;;
40707;SDS011;26392;42.696;23.350;2023-04-06T09:30:37;14.55;;;5.90;;
40707;SDS011;26392;42.696;23.350;2023-04-06T09:33:12;13.75;;;6.50;;
40707;SDS011;26392;42.696;23.350;2023-04-06T09:35:49;14.10;;;6.53;;
40707;SDS011;26392;42.696;23.350;2023-04-06T09:38:15;11.45;;;6.68;;
40707;SDS011;26392;42.696;23.350;2023-04-06T09:40:50;10.73;;;6.10;;
40707;SDS011;26392;42.696;23.350;2023-04-06T09:43:29;9.88;;;5.80;;
40707;SDS011;26392;42.696;23.350;2023-04-06T09:45:58;14.20;;;6.18;;
40707;SDS011;26392;42.696;23.350;2023-04-06T09:48:25;14.68;;;6.20;;
40707;SDS011;26392;42.696;23.350;2023-04-06T09:50:53;12.20;;;6.18;;
40707;SDS011;26392;42.696;23.350;2023-04-06T09:53:23;11.07;;;6.50;;
40707;SDS011;26392;42.696;23.350;2023-04-06T09:55:51;10.27;;;5.80;;
40707;SDS011;26392;42.696;23.350;2023-04-06T09:58:22;14.35;;;6.15;;
40707;SDS011;26392;42.696;23.350;2023-04-06T10:01:13;12.85;;;6.05;;
40707;SDS011;26392;42.696;23.350;2023-04-06T10:06:43;12.20;;;6.63;;
40707;SDS011;26392;42.696;23.350;2023-04-06T10:09:12;13.63;;;5.30;;
40707;SDS011;26392;42.696;23.350;2023-04-06T10:11:39;18.02;;;7.95;;
40707;SDS011;26392;42.696;23.350;2023-04-06T10:14:05;18.73;;;7.93;;
40707;SDS011;26392;42.696;23.350;2023-04-06T10:16:31;10.60;;;6.22;;
40707;SDS011;26392;42.696;23.350;2023-04-06T10:19:10;10.80;;;5.47;;
40707;SDS011;26392;42.696;23.350;2023-04-06T10:21:40;8.95;;;5.50;;
40707;SDS011;26392;42.696;23.350;2023-04-06T10:24:10;10.00;;;5.90;;
40707;SDS011;26392;42.696;23.350;2023-04-06T10:26:37;11.27;;;6.18;;
40707;SDS011;26392;42.696;23.350;2023-04-06T10:29:03;10.65;;;6.47;;
40707;SDS011;26392;42.696;23.350;2023-04-06T10:31:29;11.18;;;5.78;;
40707;SDS011;26392;42.696;23.350;2023-04-06T10:33:58;10.18;;;6.13;;
40707;SDS011;26392;42.696;23.350;2023-04-06T10:36:26;11.15;;;6.28;;
40707;SDS011;26392;42.696;23.350;2023-04-06T10:39:00;10.50;;;5.60;;
40707;SDS011;26392;42.696;23.350;2023-04-06T10:41:40;9.90;;;6.10;;
40707;SDS011;26392;42.696;23.350;2023-04-06T10:44:07;11.68;;;6.60;;
40707;SDS011;26392;42.696;23.350;2023-04-06T10:46:33;11.05;;;6.22;;
40707;SDS011;26392;42.696;23.350;2023-04-06T10:49:09;11.73;;;7.05;;
40707;SDS011;26392;42.696;23.350;2023-04-06T10:51:37;11.75;;;6.45;;
40707;SDS011;26392;42.696;23.350;2023-04-06T10:54:04;14.15;;;6.65;;
40707;SDS011;26392;42.696;23.350;2023-04-06T10:56:31;10.20;;;6.68;;
40707;SDS011;26392;42.696;23.350;2023-04-06T10:59:01;12.73;;;6.70;;
40707;SDS011;26392;42.696;23.350;2023-04-06T11:01:27;12.10;;;5.85;;
40707;SDS011;26392;42.696;23.350;2023-04-06T11:03:53;10.05;;;5.90;;
40707;SDS011;26392;42.696;23.350;2023-04-06T11:08:47;9.90;;;5.47;;
40707;SDS011;26392;42.696;23.350;2023-04-06T11:11:14;9.75;;;5.97;;
40707;SDS011;26392;42.696;23.350;2023-04-06T11:13:51;11.90;;;6.65;;
40707;SDS011;26392;42.696;23.350;2023-04-06T11:16:21;14.02;;;6.28;;
40707;SDS011;26392;42.696;23.350;2023-04-06T11:19:02;10.80;;;6.28;;
40707;SDS011;26392;42.696;23.350;2023-04-06T11:21:38;11.23;;;5.83;;
40707;SDS011;26392;42.696;23.350;2023-04-06T11:24:21;11.93;;;6.05;;
40707;SDS011;26392;42.696;23.350;2023-04-06T11:26:48;12.15;;;5.75;;
40707;SDS011;26392;42.696;23.350;2023-04-06T11:29:18;12.45;;;5.82;;
40707;SDS011;26392;42.696;23.350;2023-04-06T11:32:03;9.90;;;5.75;;
40707;SDS011;26392;42.696;23.350;2023-04-06T11:34:30;11.15;;;5.13;;
40707;SDS011;26392;42.696;23.350;2023-04-06T11:36:59;9.18;;;5.60;;
40707;SDS011;26392;42.696;23.350;2023-04-06T11:39:27;10.82;;;5.82;;
40707;SDS011;26392;42.696;23.350;2023-04-06T11:41:54;10.38;;;6.40;;
40707;SDS011;26392;42.696;23.350;2023-04-06T11:44:33;8.90;;;5.55;;
40707;SDS011;26392;42.696;23.350;2023-04-06T11:47:08;7.70;;;4.80;;
40707;SDS011;26392;42.696;23.350;2023-04-06T11:49:41;13.60;;;5.65;;
40707;SDS011;26392;42.696;23.350;2023-04-06T11:52:16;11.80;;;6.22;;
40707;SDS011;26392;42.696;23.350;2023-04-06T11:54:43;19.52;;;7.93;;
40707;SDS011;26392;42.696;23.350;2023-04-06T11:57:09;13.40;;;6.65;;
40707;SDS011;26392;42.696;23.350;2023-04-06T11:59:34;9.23;;;5.45;;
40707;SDS011;26392;42.696;23.350;2023-04-06T12:02:01;11.23;;;6.88;;
40707;SDS011;26392;42.696;23.350;2023-04-06T12:04:27;12.55;;;6.25;;
40707;SDS011;26392;42.696;23.350;2023-04-06T12:06:53;9.68;;;5.07;;
40707;SDS011;26392;42.696;23.350;2023-04-06T12:09:19;10.43;;;5.40;;
40707;SDS011;26392;42.696;23.350;2023-04-06T12:11:45;12.90;;;5.88;;
40707;SDS011;26392;42.696;23.350;2023-04-06T12:14:11;11.23;;;5.35;;
40707;SDS011;26392;42.696;23.350;2023-04-06T12:16:37;9.00;;;5.50;;
40707;SDS011;26392;42.696;23.350;2023-04-06T12:19:03;7.22;;;5.10;;
40707;SDS011;26392;42.696;23.350;2023-04-06T12:21:29;7.95;;;5.35;;
40707;SDS011;26392;42.696;23.350;2023-04-06T12:23:56;12.10;;;6.47;;
40707;SDS011;26392;42.696;23.350;2023-04-06T12:26:22;8.52;;;4.75;;
40707;SDS011;26392;42.696;23.350;2023-04-06T12:28:47;8.45;;;4.97;;
40707;SDS011;26392;42.696;23.350;2023-04-06T12:31:19;11.13;;;5.72;;
40707;SDS011;26392;42.696;23.350;2023-04-06T12:33:46;7.25;;;4.55;;
40707;SDS011;26392;42.696;23.350;2023-04-06T12:36:16;8.85;;;5.28;;
40707;SDS011;26392;42.696;23.350;2023-04-06T12:38:49;9.82;;;4.53;;
40707;SDS011;26392;42.696;23.350;2023-04-06T12:41:16;10.13;;;5.07;;
40707;SDS011;26392;42.696;23.350;2023-04-06T12:43:42;10.90;;;5.70;;
40707;SDS011;26392;42.696;23.350;2023-04-06T12:46:09;11.30;;;5.13;;
40707;SDS011;26392;42.696;23.350;2023-04-06T12:48:35;11.85;;;5.15;;
40707;SDS011;26392;42.696;23.350;2023-04-06T12:51:02;8.10;;;4.95;;
40707;SDS011;26392;42.696;23.350;2023-04-06T12:53:28;8.43;;;5.20;;
40707;SDS011;26392;42.696;23.350;2023-04-06T12:55:54;7.97;;;4.60;;
40707;SDS011;26392;42.696;23.350;2023-04-06T12:58:21;8.98;;;4.78;;
40707;SDS011;26392;42.696;23.350;2023-04-06T13:00:48;13.15;;;5.70;;
40707;SDS011;26392;42.696;23.350;2023-04-06T13:03:15;10.40;;;5.75;;
40707;SDS011;26392;42.696;23.350;2023-04-06T13:05:47;15.50;;;6.20;;
40707;SDS011;26392;42.696;23.350;2023-04-06T13:08:14;9.32;;;6.00;;
40707;SDS011;26392;42.696;23.350;2023-04-06T13:10:47;14.25;;;7.35;;
40707;SDS011;26392;42.696;23.350;2023-04-06T13:13:14;11.70;;;6.80;;
40707;SDS011;26392;42.696;23.350;2023-04-06T13:15:40;10.48;;;6.50;;
40707;SDS011;26392;42.696;23.350;2023-04-06T13:18:06;13.40;;;6.93;;
40707;SDS011;26392;42.696;23.350;2023-04-06T13:20:32;10.70;;;5.68;;
40707;SDS011;26392;42.696;23.350;2023-04-06T13:22:58;11.88;;;5.57;;
40707;SDS011;26392;42.696;23.350;2023-04-06T13:25:23;12.63;;;6.15;;
40707;SDS011;26392;42.696;23.350;2023-04-06T13:27:49;8.77;;;6.15;;
40707;SDS011;26392;42.696;23.350;2023-04-06T13:30:15;9.57;;;5.80;;
40707;SDS011;26392;42.696;23.350;2023-04-06T13:32:41;10.77;;;5.28;;
40707;SDS011;26392;42.696;23.350;2023-04-06T13:35:06;13.63;;;6.43;;
40707;SDS011;26392;42.696;23.350;2023-04-06T13:37:33;11.27;;;5.85;;
40707;SDS011;26392;42.696;23.350;2023-04-06T13:39:59;9.13;;;5.20;;
40707;SDS011;26392;42.696;23.350;2023-04-06T13:42:25;8.40;;;5.57;;
40707;SDS011;26392;42.696;23.350;2023-04-06T13:44:51;11.38;;;6.25;;
40707;SDS011;26392;42.696;23.350;2023-04-06T13:47:18;11.18;;;5.47;;
40707;SDS011;26392;42.696;23.350;2023-04-06T13:49:45;11.73;;;5.72;;
40707;SDS011;26392;42.696;23.350;2023-04-06T13:52:11;9.05;;;4.82;;
40707;SDS011;26392;42.696;23.350;2023-04-06T13:54:37;12.80;;;5.28;;
40707;SDS011;26392;42.696;23.350;2023-04-06T13:57:03;8.57;;;4.60;;
40707;SDS011;26392;42.696;23.350;2023-04-06T13:59:32;10.68;;;5.35;;
40707;SDS011;26392;42.696;23.350;2023-04-06T14:01:58;10.57;;;5.57;;
40707;SDS011;26392;42.696;23.350;2023-04-06T14:04:24;11.18;;;5.47;;
40707;SDS011;26392;42.696;23.350;2023-04-06T14:06:49;9.40;;;5.93;;
40707;SDS011;26392;42.696;23.350;2023-04-06T14:09:15;13.75;;;5.57;;
40707;SDS011;26392;42.696;23.350;2023-04-06T14:11:40;8.43;;;5.32;;
40707;SDS011;26392;42.696;23.350;2023-04-06T14:14:06;7.95;;;5.32;;
40707;SDS011;26392;42.696;23.350;2023-04-06T14:16:31;9.18;;;6.05;;
40707;SDS011;26392;42.696;23.350;2023-04-06T14:18:57;12.48;;;5.45;;
40707;SDS011;26392;42.696;23.350;2023-04-06T14:21:23;10.25;;;5.55;;
40707;SDS011;26392;42.696;23.350;2023-04-06T14:23:49;9.10;;;5.32;;
40707;SDS011;26392;42.696;23.350;2023-04-06T14:26:14;11.13;;;5.90;;
40707;SDS011;26392;42.696;23.350;2023-04-06T14:28:41;9.52;;;5.35;;